Time;durP1;ratioP1;P1;durP2;ratioP2;P2;SDS_P1;SDS_P2;PMS_P1;PMS_P2;Temp;Humidity;BMP_temperature;BMP_pressure;BME280_temperature;BME280_humidity;BME280_pressure;Samples;Min_cycle;Max_cycle;Signal;HPM_P1;HPM_P2
2022/09/01 00:00:52;;;;;;;2.83;1.25;;;20.90;46.30;;;;;;5003936;28;20054;-55
2022/09/01 00:03:22;;;;;;;1.88;1.55;;;20.80;46.60;;;;;;5020940;28;20057;-51
2022/09/01 00:05:55;;;;;;;4.22;1.15;;;20.90;46.30;;;;;;5019298;28;20064;-50
2022/09/01 00:08:24;;;;;;;2.83;1.50;;;20.80;46.20;;;;;;5016796;28;20049;-51
2022/09/01 00:10:51;;;;;;;1.70;1.20;;;20.80;46.20;;;;;;5015986;28;20060;-48
2022/09/01 00:13:18;;;;;;;2.10;1.42;;;20.80;46.30;;;;;;5021272;28;20080;-48
2022/09/01 00:15:46;;;;;;;5.20;1.50;;;20.80;46.50;;;;;;5015848;28;20053;-47
2022/09/01 00:18:14;;;;;;;2.10;1.50;;;20.80;46.60;;;;;;5020701;28;20065;-47
2022/09/01 00:20:41;;;;;;;3.08;1.25;;;20.80;46.60;;;;;;5014174;28;20417;-49
2022/09/01 00:23:08;;;;;;;3.20;1.40;;;20.70;46.60;;;;;;5022360;28;20057;-47
2022/09/01 00:25:36;;;;;;;2.03;1.60;;;20.70;46.60;;;;;;5019798;28;20057;-55
2022/09/01 00:28:03;;;;;;;2.22;1.45;;;20.70;46.60;;;;;;5017223;28;20053;-57
2022/09/01 00:30:31;;;;;;;1.45;1.35;;;20.70;46.70;;;;;;5011334;28;20054;-53
2022/09/01 00:32:59;;;;;;;1.33;1.10;;;20.60;46.50;;;;;;5021571;28;20049;-55
2022/09/01 00:35:27;;;;;;;1.85;1.42;;;20.60;46.50;;;;;;5017195;28;20057;-47
2022/09/01 00:37:54;;;;;;;1.80;1.33;;;20.60;46.50;;;;;;5021074;28;20045;-57
2022/09/01 00:40:22;;;;;;;2.65;1.70;;;20.60;46.70;;;;;;5016321;28;20643;-48
2022/09/01 00:42:49;;;;;;;1.90;1.20;;;20.50;46.70;;;;;;5018288;28;20060;-49
2022/09/01 00:45:18;;;;;;;1.30;1.10;;;20.50;46.70;;;;;;5016111;28;20494;-56
2022/09/01 00:47:45;;;;;;;2.55;1.40;;;20.50;46.80;;;;;;5017447;28;20080;-47
2022/09/01 00:50:16;;;;;;;2.13;1.50;;;20.50;46.80;;;;;;5012537;28;20053;-52
2022/09/01 00:52:48;;;;;;;2.88;1.30;;;20.40;46.80;;;;;;5022122;28;20057;-48
2022/09/01 00:55:18;;;;;;;2.03;1.20;;;20.40;46.70;;;;;;5021015;28;20053;-52
2022/09/01 00:57:46;;;;;;;1.80;1.38;;;20.40;46.90;;;;;;5016984;28;20061;-50
2022/09/01 01:00:17;;;;;;;2.63;1.20;;;20.40;46.90;;;;;;5012188;28;20069;-50
2022/09/01 01:02:45;;;;;;;1.27;1.17;;;20.30;47.00;;;;;;5020311;28;20049;-55
2022/09/01 01:05:15;;;;;;;3.65;1.20;;;20.30;47.10;;;;;;5020952;28;20405;-59
2022/09/01 01:07:46;;;;;;;2.10;1.25;;;20.30;47.30;;;;;;5016725;28;20406;-58
2022/09/01 01:10:14;;;;;;;2.53;1.52;;;20.30;47.30;;;;;;5014656;28;20538;-60
2022/09/01 01:12:42;;;;;;;2.83;1.35;;;20.20;47.30;;;;;;5020505;28;20416;-58
2022/09/01 01:15:11;;;;;;;8.38;1.20;;;20.20;47.40;;;;;;5014102;28;20057;-59
2022/09/01 01:17:38;;;;;;;1.80;1.33;;;20.20;47.20;;;;;;5018686;28;20057;-56
2022/09/01 01:23:07;;;;;;;1.80;1.48;;;20.20;47.30;;;;;;5027882;28;20520;-60
2022/09/01 01:25:39;;;;;;;2.78;1.50;;;20.20;47.30;;;;;;5020258;28;20061;-60
2022/09/01 01:28:10;;;;;;;3.38;1.70;;;20.20;47.30;;;;;;5016550;28;20049;-59
2022/09/01 01:50:56;;;;;;;1.50;1.15;;;20.00;47.50;;;;;;5022283;28;20044;-60
2022/09/01 01:53:23;;;;;;;1.98;1.02;;;19.90;47.40;;;;;;5023051;28;20053;-60
2022/09/01 01:55:50;;;;;;;1.10;0.98;;;19.90;47.40;;;;;;5024941;28;20057;-56
2022/09/01 01:58:19;;;;;;;2.60;1.42;;;19.90;47.50;;;;;;5014570;28;20049;-60
2022/09/01 02:00:47;;;;;;;2.15;1.00;;;19.90;47.60;;;;;;5012825;28;20057;-60
2022/09/01 02:03:17;;;;;;;2.15;1.23;;;19.90;47.70;;;;;;5024088;28;20478;-60
2022/09/01 02:05:46;;;;;;;2.58;1.40;;;19.80;47.80;;;;;;5023427;28;20054;-60
2022/09/01 02:08:21;;;;;;;2.88;1.30;;;19.80;47.80;;;;;;5018396;28;20518;-60
2022/09/01 02:10:51;;;;;;;2.30;1.40;;;19.80;47.90;;;;;;5016667;28;20060;-58
2022/09/01 02:13:21;;;;;;;2.13;0.90;;;19.80;48.00;;;;;;5021705;28;20072;-60
2022/09/01 02:15:52;;;;;;;1.20;1.10;;;19.80;48.10;;;;;;5020820;28;20417;-57
2022/09/01 02:18:23;;;;;;;2.08;1.35;;;19.80;48.10;;;;;;5022664;28;20053;-60
2022/09/01 02:20:52;;;;;;;2.00;1.40;;;19.80;48.20;;;;;;5016925;28;20057;-59
2022/09/01 02:23:23;;;;;;;1.42;1.13;;;19.80;48.10;;;;;;5022699;28;20049;-60
2022/09/01 02:25:53;;;;;;;1.42;1.30;;;19.70;48.10;;;;;;5020805;28;20415;-60
2022/09/01 02:28:22;;;;;;;2.08;1.20;;;19.80;48.20;;;;;;5017682;28;20516;-60
2022/09/01 02:30:52;;;;;;;2.42;1.23;;;19.80;48.30;;;;;;5014373;28;20057;-60
2022/09/01 02:33:20;;;;;;;5.15;1.67;;;19.70;48.30;;;;;;5024433;28;20059;-60
2022/09/01 02:35:49;;;;;;;2.17;1.27;;;19.70;48.30;;;;;;5019059;28;21012;-60
2022/09/01 02:38:19;;;;;;;2.58;1.10;;;19.70;48.30;;;;;;5023958;28;20057;-59
2022/09/01 02:40:48;;;;;;;3.50;1.60;;;19.70;48.30;;;;;;5016094;28;20053;-50
2022/09/01 02:43:18;;;;;;;2.03;1.35;;;19.70;48.30;;;;;;5022869;28;20053;-49
2022/09/01 02:45:45;;;;;;;2.42;1.50;;;19.70;48.40;;;;;;5019891;28;20062;-56
2022/09/01 02:48:13;;;;;;;2.53;1.33;;;19.70;48.40;;;;;;5019962;28;20485;-50
2022/09/01 02:50:41;;;;;;;3.45;1.50;;;19.70;48.50;;;;;;5014511;28;20045;-52
2022/09/01 02:53:11;;;;;;;5.15;1.60;;;19.60;48.50;;;;;;5022036;28;20050;-52
2022/09/01 02:55:39;;;;;;;2.67;1.23;;;19.60;48.40;;;;;;5015531;28;20057;-45
2022/09/01 02:58:15;;;;;;;1.92;1.52;;;19.60;48.90;;;;;;5017363;28;20062;-51
2022/09/01 03:00:42;;;;;;;2.00;1.48;;;19.60;48.70;;;;;;5013120;28;20061;-48
2022/09/01 03:03:11;;;;;;;3.30;1.20;;;19.60;48.50;;;;;;5021997;28;20050;-46
2022/09/01 03:05:39;;;;;;;1.42;1.33;;;19.50;48.50;;;;;;5022738;28;20061;-49
2022/09/01 03:08:10;;;;;;;1.63;1.45;;;19.50;48.60;;;;;;5015747;28;20053;-56
2022/09/01 03:10:41;;;;;;;2.53;1.33;;;19.50;48.60;;;;;;5015222;28;20417;-51
2022/09/01 03:13:13;;;;;;;1.65;1.40;;;19.50;48.60;;;;;;5016639;28;20054;-50
2022/09/01 03:15:40;;;;;;;2.45;1.98;;;19.40;48.50;;;;;;5016708;28;20053;-50
2022/09/01 03:18:10;;;;;;;4.15;1.95;;;19.50;48.60;;;;;;5021087;28;20054;-57
2022/09/01 03:20:38;;;;;;;2.63;1.80;;;19.40;48.60;;;;;;5020404;28;20053;-50
2022/09/01 03:23:08;;;;;;;2.58;1.52;;;19.40;48.70;;;;;;5022997;28;20052;-51
2022/09/01 03:25:36;;;;;;;4.57;1.65;;;19.40;48.70;;;;;;5020831;28;20072;-51
2022/09/01 03:28:04;;;;;;;3.00;1.40;;;19.40;48.80;;;;;;5012666;28;20179;-47
2022/09/01 03:30:39;;;;;;;5.03;1.30;;;19.40;48.80;;;;;;5015746;28;20473;-49
2022/09/01 03:33:08;;;;;;;3.20;1.70;;;19.30;48.70;;;;;;5018641;28;20494;-49
2022/09/01 03:35:35;;;;;;;2.85;1.58;;;19.30;48.70;;;;;;5021128;28;20080;-48
2022/09/01 03:38:04;;;;;;;2.83;1.63;;;19.30;48.70;;;;;;5017952;28;20504;-48
2022/09/01 03:40:35;;;;;;;2.05;1.42;;;19.20;48.70;;;;;;5022331;28;20049;-47
2022/09/01 03:43:04;;;;;;;5.63;1.65;;;19.20;48.80;;;;;;5015842;28;20053;-51
2022/09/01 03:45:33;;;;;;;2.25;1.63;;;19.10;48.70;;;;;;5013029;28;20053;-49
2022/09/01 03:48:02;;;;;;;2.70;1.75;;;19.10;48.70;;;;;;5018050;28;20504;-48
2022/09/01 03:50:30;;;;;;;2.05;1.42;;;19.00;48.70;;;;;;5015515;28;20053;-50
2022/09/01 03:52:59;;;;;;;3.00;1.60;;;19.00;48.80;;;;;;5015403;28;20060;-56
2022/09/01 03:55:29;;;;;;;3.25;1.50;;;19.00;48.90;;;;;;5021442;28;20069;-50
2022/09/01 03:58:04;;;;;;;2.13;1.40;;;19.00;49.10;;;;;;5018317;28;20577;-49
2022/09/01 04:00:35;;;;;;;1.92;1.40;;;18.90;49.10;;;;;;5013146;28;20061;-57
2022/09/01 04:03:06;;;;;;;1.80;1.38;;;18.90;49.10;;;;;;5011287;28;20053;-50
2022/09/01 04:05:36;;;;;;;2.53;1.55;;;18.90;49.10;;;;;;5021330;28;20045;-50
2022/09/01 04:08:06;;;;;;;8.63;4.20;;;18.90;49.10;;;;;;5012834;28;20490;-49
2022/09/01 04:10:36;;;;;;;7.40;3.33;;;18.80;49.10;;;;;;5017407;28;20048;-48
2022/09/01 04:13:04;;;;;;;5.22;2.63;;;18.80;49.30;;;;;;5021327;28;20057;-53
2022/09/01 04:15:37;;;;;;;4.60;2.30;;;18.80;49.40;;;;;;5017075;28;20080;-51
2022/09/01 04:18:08;;;;;;;2.25;1.73;;;18.70;49.40;;;;;;5010491;28;20072;-49
2022/09/01 04:20:47;;;;;;;1.95;1.58;;;18.80;49.60;;;;;;5017534;28;20045;-54
2022/09/01 04:23:19;;;;;;;2.78;1.55;;;18.70;49.60;;;;;;5011679;28;20057;-53
2022/09/01 04:26:19;;;;;;;2.55;1.23;;;18.70;49.60;;;;;;5005266;28;20068;-51
2022/09/01 04:29:10;;;;;;;1.30;1.20;;;18.70;49.60;;;;;;5014440;28;20391;-49
2022/09/01 04:31:41;;;;;;;2.65;1.40;;;18.70;49.60;;;;;;5021060;28;20049;-53
2022/09/01 04:34:10;;;;;;;2.28;1.38;;;18.70;49.60;;;;;;5020211;28;20050;-49
2022/09/01 04:40:28;;;;;;;1.45;1.25;;;18.70;49.80;;;;;;5020318;28;20040;-51
2022/09/01 04:46:20;;;;;;;3.08;1.40;;;18.60;49.80;;;;;;5019987;28;20052;-49
2022/09/01 04:48:52;;;;;;;3.33;1.38;;;18.60;49.70;;;;;;5018669;28;20053;-50
2022/09/01 04:51:21;;;;;;;4.65;1.10;;;18.60;49.70;;;;;;5015399;28;20390;-53
2022/09/01 04:53:48;;;;;;;1.27;1.08;;;18.60;49.80;;;;;;5021560;28;20054;-52
2022/09/01 04:56:18;;;;;;;3.05;1.25;;;18.60;49.80;;;;;;5018615;28;20412;-50
2022/09/01 04:58:46;;;;;;;1.58;1.40;;;18.60;49.90;;;;;;5020078;28;20057;-51
2022/09/01 05:01:15;;;;;;;2.17;1.58;;;18.60;49.90;;;;;;5016601;28;20413;-50
2022/09/01 05:03:42;;;;;;;3.10;1.55;;;18.60;50.00;;;;;;5017725;28;20057;-50
2022/09/01 05:06:14;;;;;;;1.90;1.20;;;18.60;50.00;;;;;;5022025;28;20054;-50
2022/09/01 05:08:42;;;;;;;2.30;1.40;;;18.60;50.10;;;;;;5018379;28;20501;-57
2022/09/01 05:11:10;;;;;;;2.75;1.50;;;18.60;50.10;;;;;;5017041;28;20057;-48
2022/09/01 05:13:39;;;;;;;2.28;1.27;;;18.60;50.10;;;;;;5018951;28;20060;-50
2022/09/01 05:16:11;;;;;;;3.03;1.52;;;18.50;50.10;;;;;;5019562;28;20049;-52
2022/09/01 05:18:39;;;;;;;3.95;1.77;;;18.50;50.30;;;;;;5018017;28;20069;-50
2022/09/01 05:21:08;;;;;;;1.38;1.02;;;18.50;50.30;;;;;;5024418;28;20064;-49
2022/09/01 05:23:39;;;;;;;2.43;1.70;;;18.50;50.40;;;;;;5024776;28;20412;-53
2022/09/01 05:26:16;;;;;;;1.58;1.38;;;18.50;50.40;;;;;;5021373;28;20058;-55
2022/09/01 05:28:44;;;;;;;1.50;1.20;;;18.50;50.40;;;;;;5024847;28;20057;-48
2022/09/01 05:31:12;;;;;;;1.60;1.30;;;18.50;50.50;;;;;;5025096;28;20069;-51
2022/09/01 05:33:44;;;;;;;1.63;1.50;;;18.50;50.40;;;;;;5024592;28;20057;-50
2022/09/01 05:36:14;;;;;;;5.97;1.20;;;18.50;50.40;;;;;;5024379;28;20064;-48
2022/09/01 05:38:43;;;;;;;3.20;1.30;;;18.50;50.50;;;;;;5021478;28;20422;-52
2022/09/01 05:41:13;;;;;;;2.10;1.30;;;18.50;50.50;;;;;;5024407;28;20049;-56
2022/09/01 05:43:45;;;;;;;1.83;1.20;;;18.60;50.60;;;;;;5024694;28;20064;-55
2022/09/01 05:46:14;;;;;;;1.45;1.30;;;18.60;50.50;;;;;;5025128;28;20060;-53
2022/09/01 05:48:41;;;;;;;1.75;1.35;;;18.60;50.50;;;;;;5022964;28;20053;-51
2022/09/01 05:51:10;;;;;;;3.25;1.30;;;18.60;50.50;;;;;;5023469;28;20049;-50
2022/09/01 05:53:38;;;;;;;1.88;1.17;;;18.60;50.60;;;;;;5024468;28;20076;-53
2022/09/01 05:56:09;;;;;;;1.27;1.15;;;18.70;50.60;;;;;;5023434;28;20498;-48
2022/09/01 05:58:37;;;;;;;4.30;1.30;;;18.70;50.70;;;;;;5022989;28;20060;-52
2022/09/01 06:01:04;;;;;;;1.90;1.50;;;18.70;50.60;;;;;;5024089;28;20060;-49
2022/09/01 06:03:33;;;;;;;2.65;1.08;;;18.80;50.60;;;;;;5024616;28;20068;-51
2022/09/01 06:06:07;;;;;;;3.17;1.50;;;18.80;50.60;;;;;;5024370;28;20517;-53
2022/09/01 06:08:35;;;;;;;3.90;1.45;;;18.90;50.60;;;;;;5024393;28;20057;-51
2022/09/01 06:11:11;;;;;;;2.33;1.48;;;18.90;50.60;;;;;;5021398;28;20061;-51
2022/09/01 06:13:40;;;;;;;2.17;1.70;;;18.90;50.60;;;;;;5024348;28;20424;-49
2022/09/01 06:16:08;;;;;;;3.83;1.65;;;19.00;50.70;;;;;;5021953;28;20049;-47
2022/09/01 06:18:36;;;;;;;4.05;1.27;;;19.00;50.80;;;;;;5024516;28;20053;-50
2022/09/01 06:21:04;;;;;;;1.83;1.40;;;19.10;50.80;;;;;;5024228;28;20057;-51
2022/09/01 06:23:32;;;;;;;1.77;1.20;;;19.10;50.80;;;;;;5024529;28;20056;-49
2022/09/01 06:26:00;;;;;;;1.50;1.20;;;19.10;50.80;;;;;;5021723;28;20509;-49
2022/09/01 06:28:28;;;;;;;2.00;1.23;;;19.20;51.20;;;;;;5023565;28;20057;-49
2022/09/01 06:30:57;;;;;;;2.22;0.98;;;19.20;50.60;;;;;;5022797;28;20049;-56
2022/09/01 06:33:25;;;;;;;3.95;1.30;;;19.20;50.50;;;;;;5024063;28;20053;-50
2022/09/01 06:35:54;;;;;;;1.73;1.15;;;19.30;50.50;;;;;;5024668;28;20061;-49
2022/09/01 06:38:22;;;;;;;3.78;1.20;;;19.30;50.40;;;;;;5024384;28;20053;-47
2022/09/01 06:41:00;;;;;;;1.40;1.17;;;19.30;50.30;;;;;;5023224;28;20080;-50
2022/09/01 06:43:29;;;;;;;2.17;1.10;;;19.40;50.40;;;;;;5023525;28;20061;-50
2022/09/01 06:46:01;;;;;;;1.88;1.10;;;19.40;50.20;;;;;;5023123;28;20486;-55
2022/09/01 06:48:29;;;;;;;1.88;0.90;;;19.50;50.00;;;;;;5023662;28;20058;-56
2022/09/01 06:51:02;;;;;;;4.15;1.33;;;19.50;50.00;;;;;;5022643;28;20046;-56
2022/09/01 06:53:30;;;;;;;1.05;0.80;;;19.50;50.00;;;;;;5022812;28;20069;-49
2022/09/01 06:55:58;;;;;;;2.80;1.10;;;19.60;49.90;;;;;;5021966;28;20057;-50
2022/09/01 06:58:25;;;;;;;2.33;1.40;;;19.60;49.90;;;;;;5023072;28;20049;-50
2022/09/01 07:00:52;;;;;;;2.22;1.10;;;19.70;49.80;;;;;;5024016;28;20053;-48
2022/09/01 07:03:23;;;;;;;2.25;1.25;;;19.70;49.80;;;;;;5022316;28;20069;-50
2022/09/01 07:05:51;;;;;;;1.38;0.95;;;19.80;49.70;;;;;;5022552;28;20539;-51
2022/09/01 07:08:20;;;;;;;2.33;1.38;;;19.80;49.60;;;;;;5008279;28;20646;-50
2022/09/01 07:10:50;;;;;;;2.15;1.30;;;19.90;49.60;;;;;;4994729;28;20076;-51
2022/09/01 07:13:21;;;;;;;2.67;1.00;;;19.90;49.60;;;;;;5020216;28;20053;-50
2022/09/01 07:15:49;;;;;;;2.85;1.13;;;20.00;49.50;;;;;;5023263;28;20057;-51
2022/09/01 07:18:17;;;;;;;1.33;1.05;;;20.00;49.30;;;;;;5023405;28;20064;-52
2022/09/01 07:20:47;;;;;;;1.55;1.10;;;20.00;49.20;;;;;;5018948;28;20053;-52
2022/09/01 07:23:16;;;;;;;2.00;1.00;;;20.10;49.20;;;;;;5020578;28;20061;-51
2022/09/01 07:25:46;;;;;;;2.38;1.20;;;20.10;49.20;;;;;;5020128;28;20049;-57
2022/09/01 07:28:15;;;;;;;8.23;1.35;;;20.30;49.40;;;;;;5023140;28;20053;-50
2022/09/01 07:30:47;;;;;;;1.75;0.90;;;20.30;49.20;;;;;;5023032;28;20620;-51
2022/09/01 07:33:17;;;;;;;1.95;0.95;;;20.30;48.90;;;;;;5023746;28;20050;-49
2022/09/01 07:35:47;;;;;;;3.35;1.30;;;20.40;48.90;;;;;;5023032;28;20056;-53
2022/09/01 07:38:17;;;;;;;2.28;1.17;;;20.40;48.70;;;;;;5021243;28;20057;-52
2022/09/01 07:40:44;;;;;;;2.40;1.02;;;20.50;48.70;;;;;;5020578;28;20057;-50
2022/09/01 07:43:19;;;;;;;3.53;1.20;;;20.60;48.20;;;;;;4978863;28;20521;-52
2022/09/01 07:45:47;;;;;;;2.40;0.90;;;20.60;48.30;;;;;;5021304;28;20076;-53
2022/09/01 07:48:19;;;;;;;1.92;1.00;;;20.70;48.40;;;;;;5016164;28;20521;-56
2022/09/01 07:50:51;;;;;;;1.00;0.80;;;20.70;48.30;;;;;;5001211;28;20065;-51
2022/09/01 07:53:21;;;;;;;1.83;0.90;;;20.70;48.20;;;;;;4998243;28;20061;-52
2022/09/01 07:55:50;;;;;;;1.33;0.88;;;20.80;47.90;;;;;;5003178;28;20054;-50
2022/09/01 07:58:20;;;;;;;1.83;1.00;;;20.90;48.00;;;;;;5020317;28;20053;-48
2022/09/01 08:00:48;;;;;;;4.00;1.00;;;20.90;47.90;;;;;;5022871;28;20072;-51
2022/09/01 08:03:17;;;;;;;2.40;1.20;;;20.90;47.60;;;;;;5021641;28;20076;-57
2022/09/01 08:05:46;;;;;;;1.63;0.90;;;21.00;47.60;;;;;;5021844;28;20076;-50
2022/09/01 08:08:15;;;;;;;3.83;1.10;;;21.00;47.40;;;;;;5022304;28;20072;-54
2022/09/01 08:10:44;;;;;;;5.35;1.13;;;21.00;47.50;;;;;;5020239;28;20064;-49
2022/09/01 08:13:11;;;;;;;1.58;0.88;;;21.10;47.60;;;;;;5022244;28;20397;-51
2022/09/01 08:15:40;;;;;;;1.55;0.80;;;21.10;47.70;;;;;;5020105;28;20056;-52
2022/09/01 08:18:07;;;;;;;1.83;0.82;;;21.20;47.60;;;;;;5021315;28;20434;-47
2022/09/01 08:20:38;;;;;;;2.67;1.10;;;21.20;47.50;;;;;;5006908;28;20053;-51
2022/09/01 08:23:07;;;;;;;4.78;1.30;;;21.30;47.30;;;;;;4996715;28;20061;-54
2022/09/01 08:25:37;;;;;;;2.50;0.70;;;21.30;47.20;;;;;;5002232;28;20045;-45
2022/09/01 08:28:05;;;;;;;1.65;1.10;;;21.40;47.20;;;;;;4999375;28;20073;-48
2022/09/01 08:30:32;;;;;;;2.30;1.20;;;21.40;47.10;;;;;;4997110;28;20494;-49
2022/09/01 08:33:00;;;;;;;5.03;1.10;;;21.40;47.10;;;;;;4998807;28;20077;-50
2022/09/01 08:35:28;;;;;;;1.23;0.80;;;21.50;47.20;;;;;;4999319;28;20093;-48
2022/09/01 08:37:56;;;;;;;1.13;0.77;;;21.60;47.10;;;;;;4997009;28;20406;-52
2022/09/01 08:40:23;;;;;;;1.73;1.10;;;21.60;47.00;;;;;;4997118;28;20064;-49
2022/09/01 08:43:04;;;;;;;2.13;1.00;;;21.70;46.90;;;;;;4999400;28;20060;-50
2022/09/01 08:45:34;;;;;;;1.88;1.10;;;21.70;46.80;;;;;;5001397;28;20053;-51
2022/09/01 08:48:07;;;;;;;2.85;1.30;;;21.80;46.70;;;;;;4997641;28;20061;-51
2022/09/01 08:50:37;;;;;;;2.80;1.20;;;21.90;47.00;;;;;;5003167;28;20052;-54
2022/09/01 08:53:11;;;;;;;3.45;1.02;;;21.90;46.70;;;;;;5004008;28;20081;-49
2022/09/01 08:55:43;;;;;;;3.92;1.00;;;21.90;46.50;;;;;;4996904;28;20456;-52
2022/09/01 08:58:16;;;;;;;1.20;1.00;;;22.00;46.80;;;;;;4996357;28;20065;-54
2022/09/01 09:00:46;;;;;;;1.83;1.05;;;22.10;46.60;;;;;;4998307;28;20073;-48
2022/09/01 09:03:21;;;;;;;2.08;0.90;;;22.10;46.60;;;;;;4997937;28;20396;-52
2022/09/01 09:06:03;;;;;;;1.08;0.98;;;22.10;46.30;;;;;;5005609;28;20065;-56
2022/09/01 09:08:51;;;;;;;1.35;1.08;;;22.10;46.20;;;;;;4999075;28;20688;-49
2022/09/01 09:11:35;;;;;;;1.95;1.27;;;22.20;46.20;;;;;;4995473;28;20064;-54
2022/09/01 09:14:14;;;;;;;3.63;1.13;;;22.30;46.20;;;;;;4998773;28;20060;-52
2022/09/01 09:16:42;;;;;;;1.90;1.20;;;22.30;45.90;;;;;;4999889;28;20054;-50
2022/09/01 09:19:22;;;;;;;1.90;1.20;;;22.40;46.00;;;;;;4995529;28;20305;-50
2022/09/01 09:21:51;;;;;;;2.17;1.40;;;22.40;46.00;;;;;;5002434;28;20058;-51
2022/09/01 09:24:26;;;;;;;1.85;1.13;;;22.50;45.90;;;;;;4995862;28;20743;-51
2022/09/01 09:26:56;;;;;;;1.70;1.10;;;22.50;45.60;;;;;;5003814;28;20057;-54
2022/09/01 09:29:24;;;;;;;1.83;1.20;;;22.60;45.40;;;;;;4998228;28;20490;-52
2022/09/01 09:32:04;;;;;;;1.88;0.98;;;22.60;45.50;;;;;;4997317;28;20060;-53
2022/09/01 09:34:35;;;;;;;2.47;1.30;;;22.60;45.30;;;;;;4996508;28;20080;-48
2022/09/01 09:37:17;;;;;;;3.13;1.27;;;22.70;45.10;;;;;;5000942;28;20064;-50
2022/09/01 09:39:44;;;;;;;9.20;1.30;;;22.70;44.90;;;;;;4997398;28;20061;-50
2022/09/01 09:42:14;;;;;;;1.10;0.90;;;22.80;45.10;;;;;;5013168;28;20057;-51
2022/09/01 09:44:47;;;;;;;1.42;1.10;;;22.80;44.90;;;;;;5007596;28;20053;-49
2022/09/01 09:47:34;;;;;;;3.30;1.33;;;22.80;44.70;;;;;;4998456;28;20049;-51
2022/09/01 09:50:17;;;;;;;1.63;1.25;;;22.90;44.40;;;;;;4996778;28;20054;-57
2022/09/01 09:52:45;;;;;;;1.30;1.10;;;22.90;44.40;;;;;;4997866;28;20391;-50
2022/09/01 09:55:26;;;;;;;4.75;1.30;;;23.00;44.60;;;;;;4996363;28;20107;-50
2022/09/01 09:57:58;;;;;;;2.58;1.50;;;23.00;44.40;;;;;;4996291;28;20049;-46
2022/09/01 10:00:28;;;;;;;4.43;2.30;;;23.10;44.60;;;;;;4996930;28;20061;-47
2022/09/01 10:03:00;;;;;;;6.55;1.85;;;23.10;44.50;;;;;;5001098;28;20049;-54
2022/09/01 10:05:39;;;;;;;2.80;1.63;;;23.20;44.40;;;;;;5006613;28;20754;-47
2022/09/01 10:08:09;;;;;;;2.60;1.60;;;23.20;44.40;;;;;;4993067;28;20387;-48
2022/09/01 10:10:40;;;;;;;2.00;1.63;;;23.30;44.70;;;;;;4994526;28;20045;-46
2022/09/01 10:13:11;;;;;;;2.20;1.65;;;23.40;44.10;;;;;;5006175;28;20057;-50
2022/09/01 10:15:41;;;;;;;1.50;1.30;;;23.40;44.20;;;;;;4997323;28;20053;-52
2022/09/01 10:18:13;;;;;;;2.95;1.60;;;23.40;45.00;;;;;;5000773;28;20054;-49
2022/09/01 10:20:54;;;;;;;2.30;1.70;;;23.50;44.30;;;;;;5005901;28;20045;-50
2022/09/01 10:23:23;;;;;;;2.63;1.58;;;23.60;44.60;;;;;;5023366;28;20382;-53
2022/09/01 10:25:53;;;;;;;2.30;1.42;;;23.60;44.10;;;;;;5022801;28;20057;-52
2022/09/01 10:28:23;;;;;;;2.10;1.50;;;23.70;43.90;;;;;;5024452;28;20076;-50
2022/09/01 10:30:53;;;;;;;2.60;1.40;;;23.70;43.90;;;;;;5022564;28;20057;-46
2022/09/01 10:33:22;;;;;;;3.78;1.70;;;23.80;43.70;;;;;;5024303;28;20053;-48
2022/09/01 10:35:51;;;;;;;4.47;1.80;;;23.80;43.60;;;;;;5022939;28;20068;-49
2022/09/01 10:38:22;;;;;;;4.18;1.70;;;23.90;43.20;;;;;;5023823;28;20061;-50
2022/09/01 10:41:05;;;;;;;1.92;1.48;;;24.00;43.40;;;;;;5023319;28;20069;-46
2022/09/01 10:43:37;;;;;;;2.70;1.60;;;24.00;43.20;;;;;;5023265;28;20064;-50
2022/09/01 10:46:47;;;;;;;2.50;1.50;;;24.10;43.40;;;;;;5023324;28;20480;-51
2022/09/01 10:49:48;;;;;;;2.60;1.40;;;24.10;43.40;;;;;;5019653;28;20054;-57
2022/09/01 10:52:48;;;;;;;2.75;1.50;;;24.20;43.20;;;;;;4995593;28;20050;-49
2022/09/01 10:55:18;;;;;;;3.15;1.98;;;24.20;42.80;;;;;;5010105;28;20054;-50
2022/09/01 10:57:54;;;;;;;2.90;1.60;;;24.30;43.00;;;;;;4990427;28;20050;-56
2022/09/01 11:00:46;;;;;;;1.63;1.40;;;24.30;42.90;;;;;;5010796;28;20686;-55
2022/09/01 11:03:48;;;;;;;2.38;1.45;;;24.40;42.70;;;;;;4989793;28;21332;-56
2022/09/01 11:06:42;;;;;;;3.78;2.10;;;24.40;42.50;;;;;;5003935;28;20056;-51
2022/09/01 11:09:20;;;;;;;3.05;1.70;;;24.50;42.60;;;;;;4996462;28;20397;-48
2022/09/01 11:12:02;;;;;;;2.67;1.48;;;24.50;42.50;;;;;;5007809;28;20119;-52
2022/09/01 11:14:34;;;;;;;1.95;1.58;;;24.60;42.40;;;;;;5020147;28;20057;-49
2022/09/01 11:17:12;;;;;;;4.70;1.65;;;24.60;42.40;;;;;;5016943;28;20069;-53
2022/09/01 11:19:45;;;;;;;2.10;1.63;;;24.60;42.00;;;;;;5015567;28;20060;-52
2022/09/01 11:22:36;;;;;;;1.85;1.63;;;24.60;42.00;;;;;;5015078;28;20057;-48
2022/09/01 11:25:32;;;;;;;2.20;2.00;;;24.60;42.00;;;;;;5014923;28;20049;-49
2022/09/01 11:28:03;;;;;;;2.92;1.85;;;24.70;42.10;;;;;;5009246;28;20050;-51
2022/09/01 11:30:40;;;;;;;5.93;1.55;;;24.70;42.10;;;;;;5008160;28;20064;-52
2022/09/01 11:33:25;;;;;;;2.47;1.83;;;24.70;42.00;;;;;;5005715;28;20060;-50
2022/09/01 11:36:01;;;;;;;2.03;1.60;;;24.70;42.10;;;;;;5009533;28;20053;-55
2022/09/01 11:38:32;;;;;;;2.13;1.55;;;24.70;42.60;;;;;;5009320;28;20046;-56
2022/09/01 11:41:00;;;;;;;2.00;1.60;;;24.70;42.00;;;;;;5020189;28;20429;-49
2022/09/01 11:43:28;;;;;;;7.93;1.75;;;24.70;41.90;;;;;;5019165;28;20478;-53
2022/09/01 11:46:06;;;;;;;2.85;1.83;;;24.70;41.90;;;;;;5017243;28;20065;-50
2022/09/01 11:48:34;;;;;;;2.45;1.45;;;24.70;41.80;;;;;;5021452;28;20041;-51
2022/09/01 11:51:04;;;;;;;1.88;1.40;;;24.70;41.90;;;;;;5022485;28;20414;-50
2022/09/01 11:53:31;;;;;;;2.65;1.73;;;24.70;41.90;;;;;;5022433;28;20056;-49
2022/09/01 11:56:14;;;;;;;2.65;1.85;;;24.70;42.00;;;;;;5010335;28;20057;-52
2022/09/01 11:58:42;;;;;;;1.80;1.67;;;24.70;41.80;;;;;;5009778;28;20053;-51
2022/09/01 12:01:16;;;;;;;3.90;1.75;;;24.70;41.90;;;;;;4998919;28;20045;-56
2022/09/01 12:03:44;;;;;;;2.00;1.70;;;24.70;41.90;;;;;;5007806;28;20524;-51
2022/09/01 12:06:21;;;;;;;3.63;2.00;;;24.70;41.90;;;;;;5010696;28;20077;-56
2022/09/01 12:08:54;;;;;;;3.38;1.65;;;24.70;41.90;;;;;;5009469;28;20443;-51
2022/09/01 12:11:26;;;;;;;2.33;1.77;;;24.70;41.90;;;;;;5002937;28;20057;-55
2022/09/01 12:13:59;;;;;;;2.35;1.98;;;24.60;41.90;;;;;;5022257;28;20512;-53
2022/09/01 12:16:28;;;;;;;2.55;1.85;;;24.60;41.90;;;;;;5020584;28;20498;-47
2022/09/01 12:18:58;;;;;;;2.85;2.08;;;24.70;41.70;;;;;;5021813;28;20050;-49
2022/09/01 12:21:30;;;;;;;3.05;1.80;;;24.70;41.70;;;;;;5018896;28;20053;-53
2022/09/01 12:24:13;;;;;;;2.00;1.42;;;24.70;41.60;;;;;;5020574;28;20065;-48
2022/09/01 12:26:41;;;;;;;2.90;1.75;;;24.80;41.60;;;;;;5020982;28;20424;-50
2022/09/01 12:29:10;;;;;;;2.28;1.85;;;24.80;41.60;;;;;;5021801;28;20056;-50
2022/09/01 12:31:37;;;;;;;1.83;1.63;;;24.80;41.40;;;;;;5017210;28;20453;-49
2022/09/01 12:34:05;;;;;;;2.45;1.83;;;24.80;41.00;;;;;;5021347;28;20061;-45
2022/09/01 12:36:34;;;;;;;1.90;1.80;;;24.90;40.90;;;;;;5015825;28;20053;-48
2022/09/01 12:39:22;;;;;;;3.22;1.88;;;24.90;40.90;;;;;;5017939;28;20050;-53
2022/09/01 12:42:02;;;;;;;2.83;1.50;;;24.90;40.90;;;;;;5015928;28;20493;-49
2022/09/01 12:44:32;;;;;;;6.47;1.98;;;24.90;40.80;;;;;;5019305;28;20406;-56
2022/09/01 12:47:02;;;;;;;2.83;1.70;;;24.90;40.80;;;;;;5016599;28;20050;-57
2022/09/01 12:49:39;;;;;;;4.43;1.70;;;24.90;40.70;;;;;;5021736;28;20057;-50
2022/09/01 12:52:24;;;;;;;3.22;1.85;;;24.90;41.20;;;;;;5020192;28;20056;-56
2022/09/01 12:54:55;;;;;;;3.92;1.95;;;24.90;40.80;;;;;;5018256;28;20053;-52
2022/09/01 12:57:27;;;;;;;2.80;2.10;;;24.90;40.50;;;;;;5018533;28;20052;-51
2022/09/01 13:00:13;;;;;;;1.88;1.70;;;25.00;40.30;;;;;;5018586;28;20050;-57
2022/09/01 13:02:42;;;;;;;5.68;1.75;;;24.90;40.20;;;;;;5022245;28;20072;-52
2022/09/01 13:05:20;;;;;;;4.50;2.03;;;24.90;40.50;;;;;;5016930;28;20057;-54
2022/09/01 13:07:49;;;;;;;2.90;1.83;;;24.90;40.20;;;;;;5016374;28;20330;-48
2022/09/01 13:10:16;;;;;;;2.80;1.98;;;24.90;40.60;;;;;;5015176;28;20053;-50
2022/09/01 13:12:45;;;;;;;2.15;1.90;;;25.00;40.40;;;;;;5021399;28;20060;-52
2022/09/01 13:15:13;;;;;;;3.40;1.90;;;25.00;40.30;;;;;;5020002;28;20060;-50
2022/09/01 13:17:40;;;;;;;3.50;2.13;;;25.00;40.10;;;;;;5022045;28;20057;-50
2022/09/01 13:20:08;;;;;;;2.08;1.83;;;25.10;40.00;;;;;;5016696;28;20057;-50
2022/09/01 13:22:36;;;;;;;2.83;2.08;;;25.10;39.80;;;;;;5015377;28;20053;-56
2022/09/01 13:25:05;;;;;;;3.97;2.05;;;25.20;39.60;;;;;;5017285;28;20056;-55
2022/09/01 13:27:32;;;;;;;2.25;1.88;;;25.20;39.30;;;;;;5021432;28;20053;-50
2022/09/01 13:29:59;;;;;;;2.83;1.80;;;25.20;39.30;;;;;;5012974;28;20390;-53
2022/09/01 13:32:26;;;;;;;2.72;1.92;;;25.20;39.20;;;;;;4994436;28;20061;-51
2022/09/01 13:34:53;;;;;;;1.63;1.52;;;25.20;39.10;;;;;;4999859;28;20060;-53
2022/09/01 13:37:22;;;;;;;2.35;1.70;;;25.20;39.20;;;;;;4998653;28;20493;-54
2022/09/01 13:39:49;;;;;;;4.03;2.13;;;25.20;39.10;;;;;;5009104;28;20053;-53